createdAt,value
2018-02-19T00:11:23.216Z,23.55
2018-02-19T00:26:41.852Z,27.52
2018-02-19T00:44:34.748Z,22.20
2018-02-19T00:56:43.355Z,22.77
2018-02-19T00:59:11.140Z,23.85
2018-02-19T01:01:39.284Z,23.30
2018-02-19T01:04:07.069Z,25.25
2018-02-19T01:06:34.724Z,24.02
2018-02-19T01:09:07.744Z,27.02
2018-02-19T01:11:35.203Z,23.83
2018-02-19T01:14:02.658Z,28.30
2018-02-19T01:16:30.448Z,27.30
2018-02-19T01:18:58.132Z,27.25
2018-02-19T01:21:25.605Z,26.42
2018-02-19T01:23:53.080Z,29.33
2018-02-19T01:26:20.574Z,29.12
2018-02-19T01:28:48.332Z,24.37
2018-02-19T01:31:16.524Z,27.20
2018-02-19T01:33:44.095Z,30.00
2018-02-19T01:49:01.889Z,31.25
2018-02-19T01:51:31.437Z,32.35
2018-02-19T01:53:59.724Z,34.17
2018-02-19T01:56:28.071Z,36.83
2018-02-19T02:08:35.569Z,30.40
2018-02-19T02:11:18.206Z,39.33
2018-02-19T02:13:46.028Z,37.42
2018-02-19T02:16:13.508Z,33.53
2018-02-19T02:25:25.983Z,33.22
2018-02-19T02:27:53.444Z,35.08
2018-02-19T02:30:21.671Z,36.85
2018-02-19T02:32:49.888Z,29.77
2018-02-19T02:35:17.343Z,36.85
2018-02-19T02:37:44.802Z,30.48
2018-02-19T02:40:12.280Z,32.10
2018-02-19T02:42:39.752Z,31.77
2018-02-19T02:45:07.255Z,34.97
2018-02-19T02:47:34.719Z,29.77
2018-02-19T02:50:02.175Z,32.45
2018-02-19T02:52:29.860Z,36.70
2018-02-19T02:54:57.351Z,32.70
2018-02-19T02:57:25.439Z,42.78
2018-02-19T02:59:52.916Z,34.78
2018-02-19T03:02:20.380Z,33.92
2018-02-19T03:04:47.843Z,37.63
2018-02-19T03:07:15.335Z,40.40
2018-02-19T03:09:42.862Z,37.63
2018-02-19T03:12:10.327Z,36.65
2018-02-19T03:14:39.243Z,36.35
2018-02-19T03:17:06.684Z,36.97
2018-02-19T03:19:34.148Z,37.78
2018-02-19T03:22:01.603Z,36.53
2018-02-19T03:24:29.140Z,33.08
2018-02-19T03:27:00.399Z,31.48
2018-02-19T03:29:27.911Z,41.08
2018-02-19T03:31:55.393Z,37.40
2018-02-19T03:34:22.835Z,27.75
2018-02-19T03:36:50.336Z,32.05
2018-02-19T03:39:17.811Z,32.13
2018-02-19T03:41:45.274Z,28.08
2018-02-19T03:44:13.293Z,34.75
2018-02-19T03:46:40.748Z,36.00
2018-02-19T03:49:08.208Z,36.15
2018-02-19T03:51:41.440Z,34.55
2018-02-19T03:54:09.053Z,36.20
2018-02-19T03:56:50.642Z,29.85
2018-02-19T03:59:18.340Z,34.83
2018-02-19T04:01:46.595Z,28.27
2018-02-19T04:04:14.103Z,31.23
2018-02-19T04:06:41.596Z,30.48
2018-02-19T04:09:09.046Z,33.03
2018-02-19T04:11:36.547Z,28.60
2018-02-19T04:14:04.783Z,33.17
2018-02-19T04:16:32.252Z,31.98
2018-02-19T04:18:59.725Z,31.48
2018-02-19T04:21:27.176Z,28.75
2018-02-19T04:23:54.649Z,29.65
2018-02-19T04:26:22.990Z,29.52
2018-02-19T04:28:50.456Z,32.85
2018-02-19T04:31:17.943Z,31.37
2018-02-19T04:33:45.430Z,29.60
2018-02-19T04:36:12.926Z,29.92
2018-02-19T04:38:40.507Z,28.08
2018-02-19T04:41:07.968Z,32.25
2018-02-19T04:43:35.437Z,31.12
2018-02-19T04:46:02.876Z,31.52
2018-02-19T04:48:34.104Z,29.15
2018-02-19T04:51:01.572Z,31.52
2018-02-19T04:53:29.839Z,25.15
2018-02-19T04:55:57.334Z,28.00
2018-02-19T04:58:24.775Z,27.60
2018-02-19T05:00:52.228Z,30.75
2018-02-19T05:03:20.447Z,31.77
2018-02-19T05:05:48.727Z,28.58
2018-02-19T05:08:16.965Z,29.92
2018-02-19T05:10:44.432Z,26.30
2018-02-19T05:13:11.876Z,29.98
2018-02-19T05:15:39.345Z,26.77
2018-02-19T05:18:06.805Z,31.85
2018-02-19T05:20:34.271Z,31.35
2018-02-19T05:23:01.730Z,28.45
2018-02-19T05:25:29.255Z,32.67
2018-02-19T05:27:56.757Z,35.63
2018-02-19T05:30:24.216Z,33.97
2018-02-19T05:32:51.715Z,33.22
2018-02-19T05:35:19.735Z,36.33
2018-02-19T05:37:48.107Z,32.97
2018-02-19T05:40:15.608Z,37.78
2018-02-19T05:42:43.058Z,31.80
2018-02-19T05:45:10.524Z,35.22
2018-02-19T05:47:38.763Z,36.55
2018-02-19T05:50:06.188Z,34.03
2018-02-19T05:52:33.668Z,32.92
2018-02-19T05:55:01.100Z,29.12
2018-02-19T05:57:28.576Z,34.03
2018-02-19T05:59:56.017Z,35.80
2018-02-19T06:02:23.490Z,31.33
2018-02-19T06:04:50.998Z,35.50
2018-02-19T06:07:19.015Z,33.75
2018-02-19T06:09:46.483Z,32.53
2018-02-19T06:12:13.951Z,37.15
2018-02-19T06:14:41.428Z,34.50
2018-02-19T06:17:08.925Z,31.37
2018-02-19T06:19:36.390Z,35.88
2018-02-19T06:22:03.859Z,35.38
2018-02-19T06:24:31.307Z,36.58
2018-02-19T06:26:59.040Z,32.90
2018-02-19T06:29:26.499Z,36.60
2018-02-19T06:31:53.935Z,41.25
2018-02-19T06:34:22.186Z,32.70
2018-02-19T06:36:49.631Z,41.28
2018-02-19T06:39:18.081Z,34.85
2018-02-19T06:41:45.565Z,33.38
2018-02-19T06:44:13.004Z,36.00
2018-02-19T06:46:40.455Z,37.75
2018-02-19T06:49:07.928Z,32.30
2018-02-19T06:51:35.428Z,34.22
2018-02-19T06:54:02.871Z,34.45
2018-02-19T06:56:30.323Z,35.88
2018-02-19T06:58:57.859Z,35.75
2018-02-19T07:01:25.298Z,38.42
2018-02-19T07:03:52.797Z,31.45
2018-02-19T07:06:21.019Z,33.72
2018-02-19T07:08:48.707Z,36.40
2018-02-19T07:11:16.181Z,34.80
2018-02-19T07:13:43.643Z,36.05
2018-02-19T07:16:11.100Z,29.15
2018-02-19T07:18:39.391Z,32.53
2018-02-19T07:21:06.872Z,31.30
2018-02-19T07:23:34.310Z,34.70
2018-02-19T07:26:01.765Z,33.33
2018-02-19T07:28:29.212Z,33.38
2018-02-19T07:30:57.437Z,28.50
2018-02-19T07:33:24.915Z,34.42
2018-02-19T07:35:52.430Z,31.52
2018-02-19T07:38:19.883Z,29.08
2018-02-19T07:40:47.875Z,30.88
2018-02-19T07:43:15.347Z,29.45
2018-02-19T07:45:42.805Z,34.10
2018-02-19T07:48:10.260Z,32.90
2018-02-19T07:50:37.720Z,34.13
2018-02-19T07:53:05.216Z,31.45
2018-02-19T07:55:33.434Z,26.85
2018-02-19T07:58:00.909Z,36.55
2018-02-19T08:00:28.344Z,31.35
2018-02-19T08:02:55.843Z,29.75
2018-02-19T08:05:23.369Z,31.85
2018-02-19T08:07:50.849Z,31.62
2018-02-19T08:10:19.075Z,30.17
2018-02-19T08:12:46.539Z,33.47
2018-02-19T08:15:14.081Z,32.90
2018-02-19T08:17:41.643Z,31.12
2018-02-19T08:20:09.084Z,32.35
2018-02-19T08:22:36.557Z,32.17
2018-02-19T08:25:04.032Z,33.22
2018-02-19T08:27:31.507Z,31.42
2018-02-19T08:29:58.988Z,27.02
2018-02-19T08:32:26.439Z,29.37
2018-02-19T08:34:54.668Z,26.67
2018-02-19T08:37:22.112Z,27.85
2018-02-19T08:39:49.585Z,30.10
2018-02-19T08:42:17.028Z,28.95
2018-02-19T08:44:44.506Z,25.50
2018-02-19T08:47:11.987Z,28.42
2018-02-19T08:49:40.193Z,30.37
2018-02-19T08:52:07.676Z,36.60
2018-02-19T08:54:35.125Z,27.62
2018-02-19T08:57:02.619Z,35.63
2018-02-19T08:59:30.099Z,25.67
2018-02-19T09:01:57.547Z,33.72
2018-02-19T09:04:25.827Z,34.10
2018-02-19T09:06:53.327Z,30.15
2018-02-19T09:09:21.412Z,28.23
2018-02-19T09:11:48.879Z,24.35
2018-02-19T09:14:16.376Z,26.37
2018-02-19T09:16:44.598Z,23.35
2018-02-19T09:19:12.043Z,25.25
2018-02-19T09:21:39.508Z,25.12
2018-02-19T09:24:06.997Z,28.90
2018-02-19T09:26:34.458Z,24.08
2018-02-19T09:29:03.807Z,26.70
2018-02-19T09:31:31.264Z,23.25
2018-02-19T09:33:58.792Z,19.85
2018-02-19T09:36:26.249Z,26.58
2018-02-19T09:38:53.751Z,21.55
2018-02-19T09:41:21.702Z,21.35
2018-02-19T09:43:49.175Z,23.17
2018-02-19T09:46:16.672Z,19.73
2018-02-19T09:48:44.150Z,22.65
2018-02-19T09:51:11.680Z,21.67
2018-02-19T09:53:39.168Z,20.65
2018-02-19T09:56:06.622Z,23.70
2018-02-19T09:58:34.104Z,23.15
2018-02-19T10:01:01.685Z,23.85
2018-02-19T10:03:29.461Z,22.48
2018-02-19T10:05:56.925Z,31.50
2018-02-19T10:08:24.395Z,21.42
2018-02-19T10:10:52.644Z,23.85
2018-02-19T10:13:20.165Z,22.20
2018-02-19T10:15:52.368Z,19.37
2018-02-19T10:18:19.868Z,19.83
2018-02-19T10:20:47.358Z,23.67
2018-02-19T10:23:14.898Z,24.70
2018-02-19T10:25:42.360Z,21.95
2018-02-19T10:28:10.584Z,25.25
2018-02-19T10:30:38.055Z,20.83
2018-02-19T10:33:05.550Z,28.73
2018-02-19T10:35:33.008Z,19.90
2018-02-19T10:38:01.215Z,22.80
2018-02-19T10:40:28.689Z,26.90
2018-02-19T10:42:56.144Z,24.00
2018-02-19T10:45:23.623Z,27.00
2018-02-19T10:47:51.884Z,27.15
2018-02-19T10:50:20.089Z,20.75
2018-02-19T10:52:47.617Z,28.50
2018-02-19T10:55:15.017Z,22.50
2018-02-19T10:57:43.789Z,23.70
2018-02-19T11:00:11.345Z,19.55
2018-02-19T11:02:39.647Z,42.10
2018-02-19T11:14:47.223Z,20.92
2018-02-19T11:17:14.813Z,20.85
2018-02-19T11:19:42.380Z,21.33
2018-02-19T11:22:09.946Z,20.98
2018-02-19T11:24:37.922Z,25.45
2018-02-19T11:27:05.435Z,24.40
2018-02-19T11:29:33.852Z,20.65
2018-02-19T11:32:01.346Z,20.92
2018-02-19T11:34:28.816Z,23.35
2018-02-19T11:36:57.023Z,19.95
2018-02-19T11:39:24.486Z,23.23
2018-02-19T11:41:51.973Z,20.20
2018-02-19T11:44:19.430Z,23.20
2018-02-19T11:46:47.761Z,20.12
2018-02-19T11:49:15.210Z,20.70
2018-02-19T11:51:42.692Z,20.67
2018-02-19T11:54:10.152Z,19.12
2018-02-19T11:56:37.624Z,21.23
2018-02-19T11:59:05.064Z,23.08
2018-02-19T12:01:32.525Z,22.20
2018-02-19T12:03:59.975Z,22.10
2018-02-19T12:06:27.428Z,22.33
2018-02-19T12:08:54.871Z,22.95
2018-02-19T12:11:22.385Z,24.00
2018-02-19T12:13:49.848Z,24.58
2018-02-19T12:16:17.327Z,24.92
2018-02-19T12:18:45.538Z,20.88
2018-02-19T12:21:13.000Z,23.00
2018-02-19T12:23:40.441Z,22.45
2018-02-19T12:26:07.920Z,24.70
2018-02-19T12:28:35.458Z,21.20
2018-02-19T12:31:02.904Z,19.70
2018-02-19T12:33:30.344Z,22.87
2018-02-19T12:35:58.564Z,22.27
2018-02-19T12:38:26.027Z,19.55
2018-02-19T12:40:53.472Z,22.33
2018-02-19T12:43:21.059Z,20.60
2018-02-19T12:45:48.513Z,22.67
2018-02-19T12:48:16.002Z,21.45
2018-02-19T12:50:44.203Z,18.33
2018-02-19T12:53:11.667Z,21.45
2018-02-19T12:55:39.136Z,21.05
2018-02-19T12:58:06.667Z,22.80
2018-02-19T13:00:34.136Z,21.75
2018-02-19T13:03:01.600Z,18.80
2018-02-19T13:05:29.092Z,16.62
2018-02-19T13:07:57.303Z,21.77
2018-02-19T13:10:24.766Z,17.67
2018-02-19T13:12:52.207Z,22.65
2018-02-19T13:15:19.680Z,19.02
2018-02-19T13:17:47.140Z,20.85
2018-02-19T13:20:14.612Z,19.90
2018-02-19T13:22:42.051Z,21.27
2018-02-19T13:25:09.528Z,22.10
2018-02-19T13:27:37.035Z,20.08
2018-02-19T13:30:04.518Z,18.37
2018-02-19T13:32:31.967Z,20.20
2018-02-19T13:34:59.432Z,16.00
2018-02-19T13:37:26.888Z,18.37
2018-02-19T13:39:54.353Z,25.67
2018-02-19T13:42:21.820Z,17.40
2018-02-19T13:44:49.264Z,21.27
2018-02-19T13:47:16.727Z,17.27
2018-02-19T13:49:44.168Z,18.33
2018-02-19T13:52:11.636Z,19.95
2018-02-19T13:57:12.983Z,19.80
2018-02-19T13:59:40.439Z,16.67
2018-02-19T14:02:07.937Z,15.52
2018-02-19T14:04:35.356Z,22.20
2018-02-19T14:07:02.937Z,22.30
2018-02-19T14:09:30.374Z,19.58
2018-02-19T14:11:57.815Z,15.35
2018-02-19T14:14:25.409Z,20.52
2018-02-19T14:16:52.891Z,16.15
2018-02-19T14:19:20.402Z,16.98
2018-02-19T14:21:48.600Z,14.32
2018-02-19T14:24:16.062Z,18.77
2018-02-19T14:26:43.514Z,13.18
2018-02-19T14:29:10.976Z,13.65
2018-02-19T14:31:38.427Z,12.32
2018-02-19T14:34:05.923Z,17.70
2018-02-19T14:36:33.423Z,15.88
2018-02-19T14:39:00.941Z,13.38
2018-02-19T14:41:28.393Z,12.73
2018-02-19T14:43:56.592Z,13.18
2018-02-19T14:46:24.066Z,15.35
2018-02-19T14:48:51.512Z,17.42
2018-02-19T14:51:18.987Z,13.98
2018-02-19T14:53:46.410Z,13.77
2018-02-19T14:56:14.575Z,11.90
2018-02-19T14:58:42.076Z,12.63
2018-02-19T15:01:09.663Z,15.65
2018-02-19T15:03:37.942Z,15.93
2018-02-19T15:06:07.145Z,13.68
2018-02-19T15:08:35.404Z,13.73
2018-02-19T15:11:02.917Z,13.20
2018-02-19T15:13:30.372Z,19.52
2018-02-19T15:15:57.833Z,14.65
2018-02-19T15:18:25.307Z,17.20
2018-02-19T15:20:53.659Z,14.80
2018-02-19T15:23:21.132Z,12.95
2018-02-19T15:25:49.839Z,16.73
2018-02-19T15:28:17.414Z,13.68
2018-02-19T15:30:45.728Z,14.25
2018-02-19T15:35:47.139Z,15.15
2018-02-19T15:38:14.603Z,16.45
2018-02-19T15:40:42.036Z,17.50
2018-02-19T15:43:09.561Z,18.02
2018-02-19T15:45:37.053Z,16.90
2018-02-19T15:48:04.532Z,19.50
2018-02-19T15:50:31.998Z,17.87
2018-02-19T15:53:00.242Z,15.75
2018-02-19T15:55:27.743Z,16.70
2018-02-19T15:57:55.232Z,18.08
2018-02-19T16:00:22.688Z,15.20
2018-02-19T16:02:50.128Z,16.20
2018-02-19T16:07:51.500Z,17.17
2018-02-19T16:10:18.968Z,16.37
2018-02-19T16:12:46.424Z,14.30
2018-02-19T16:15:13.888Z,16.17
2018-02-19T16:17:41.459Z,18.62
2018-02-19T16:20:09.683Z,17.50
2018-02-19T16:22:37.180Z,19.08
2018-02-19T16:25:04.685Z,21.67
2018-02-19T16:27:32.893Z,19.77
2018-02-19T16:30:00.441Z,17.33
2018-02-19T16:32:28.000Z,15.38
2018-02-19T16:34:55.485Z,17.23
2018-02-19T16:37:22.976Z,15.80
2018-02-19T16:39:51.224Z,14.35
2018-02-19T16:42:19.435Z,18.55
2018-02-19T16:47:19.807Z,18.10
2018-02-19T16:49:47.281Z,20.23
2018-02-19T16:52:14.734Z,17.83
2018-02-19T16:54:42.199Z,16.33
2018-02-19T16:57:09.683Z,15.50
2018-02-19T16:59:37.161Z,17.40
2018-02-19T17:02:04.688Z,17.52
2018-02-19T17:04:32.141Z,19.62
2018-02-19T17:06:59.602Z,14.70
2018-02-19T17:09:27.089Z,16.55
2018-02-19T17:11:55.510Z,15.90
2018-02-19T17:14:23.749Z,16.52
2018-02-19T17:16:51.247Z,15.38
2018-02-19T17:19:18.691Z,23.12
2018-02-19T17:21:46.176Z,15.35
2018-02-19T17:24:13.657Z,19.30
2018-02-19T17:26:41.892Z,15.23
2018-02-19T17:29:09.359Z,19.75
2018-02-19T17:31:36.825Z,15.85
2018-02-19T17:34:04.297Z,16.90
2018-02-19T17:36:32.510Z,17.62
2018-02-19T17:38:59.988Z,14.45
2018-02-19T17:41:27.443Z,18.58
2018-02-19T17:43:54.900Z,18.02
2018-02-19T17:46:22.379Z,15.77
2018-02-19T17:48:50.685Z,21.05
2018-02-19T17:51:18.898Z,18.60
2018-02-19T17:53:46.376Z,15.77
2018-02-19T17:56:13.855Z,16.10
2018-02-19T17:58:41.282Z,14.30
2018-02-19T18:01:08.744Z,18.02
2018-02-19T18:03:36.214Z,16.50
2018-02-19T18:06:04.473Z,15.63
2018-02-19T18:08:32.705Z,16.92
2018-02-19T18:11:00.154Z,16.27
2018-02-19T18:13:27.601Z,18.92
2018-02-19T18:15:55.077Z,16.23
2018-02-19T18:18:22.550Z,24.58
2018-02-19T18:20:50.105Z,18.20
2018-02-19T18:23:17.575Z,17.00
2018-02-19T18:25:45.080Z,18.02
2018-02-19T18:28:13.383Z,19.80
2018-02-19T18:30:40.865Z,15.77
2018-02-19T18:33:08.316Z,15.90
2018-02-19T18:35:35.915Z,17.40
2018-02-19T18:38:04.882Z,16.87
2018-02-19T18:40:32.405Z,17.23
2018-02-19T18:42:59.868Z,20.45
2018-02-19T18:45:27.357Z,20.95
2018-02-19T18:47:54.858Z,18.73
2018-02-19T18:50:22.316Z,18.02
2018-02-19T18:52:49.875Z,17.87
2018-02-19T18:55:17.332Z,21.52
2018-02-19T18:57:48.744Z,19.92
2018-02-19T19:00:16.180Z,20.33
2018-02-19T19:02:43.772Z,18.90
2018-02-19T19:05:11.249Z,20.10
2018-02-19T19:07:50.466Z,19.05
2018-02-19T19:10:30.445Z,20.52
2018-02-19T19:12:57.932Z,18.98
2018-02-19T19:15:25.469Z,20.30
2018-02-19T19:17:53.659Z,20.25
2018-02-19T19:20:21.112Z,22.60
2018-02-19T19:22:48.572Z,19.75
2018-02-19T19:25:16.021Z,19.25
2018-02-19T19:27:43.501Z,20.62
2018-02-19T19:30:10.952Z,20.30
2018-02-19T19:32:38.473Z,18.95
2018-02-19T19:35:05.943Z,21.30
2018-02-19T19:37:33.419Z,19.92
2018-02-19T19:40:00.884Z,18.42
2018-02-19T19:42:28.340Z,17.45
2018-02-19T19:44:55.855Z,18.35
2018-02-19T19:47:23.339Z,18.73
2018-02-19T19:49:50.896Z,22.00
2018-02-19T19:52:18.388Z,18.60
2018-02-19T19:54:45.900Z,17.12
2018-02-19T19:57:13.372Z,17.37
2018-02-19T19:59:40.888Z,17.52
2018-02-19T20:02:08.323Z,20.95
2018-02-19T20:04:35.784Z,17.02
2018-02-19T20:07:03.265Z,19.35
2018-02-19T20:09:30.762Z,17.30
2018-02-19T20:11:58.236Z,22.80
2018-02-19T20:14:26.500Z,21.75
2018-02-19T20:16:54.054Z,19.80
2018-02-19T20:19:21.496Z,24.65
2018-02-19T20:21:48.972Z,19.77
2018-02-19T20:24:16.477Z,21.85
2018-02-19T20:26:44.100Z,19.77
2018-02-19T20:29:13.027Z,17.37
2018-02-19T20:31:40.504Z,22.00
2018-02-19T20:34:08.021Z,19.50
2018-02-19T20:36:35.490Z,20.17
2018-02-19T20:39:03.727Z,19.23
2018-02-19T20:41:31.917Z,18.87
2018-02-19T20:44:00.169Z,19.30
2018-02-19T20:46:27.635Z,21.87
2018-02-19T20:48:55.908Z,23.20
2018-02-19T20:51:24.251Z,19.87
2018-02-19T20:53:51.815Z,25.27
2018-02-19T20:56:19.320Z,22.05
2018-02-19T20:58:47.558Z,20.23
2018-02-19T21:01:15.006Z,22.00
2018-02-19T21:03:42.492Z,20.80
2018-02-19T21:06:09.950Z,20.17
2018-02-19T21:08:42.011Z,18.87
2018-02-19T21:11:10.269Z,18.80
2018-02-19T21:13:37.756Z,20.35
2018-02-19T21:16:05.232Z,22.80
2018-02-19T21:18:32.679Z,18.12
2018-02-19T21:21:00.149Z,20.05
2018-02-19T21:23:27.625Z,17.25
2018-02-19T21:25:55.131Z,21.48
2018-02-19T21:28:22.581Z,20.60
2018-02-19T21:30:50.070Z,21.85
2018-02-19T21:33:17.585Z,18.55
2018-02-19T21:35:45.197Z,19.92
2018-02-19T21:38:12.631Z,17.12
2018-02-19T21:40:40.235Z,22.27
2018-02-19T21:43:07.761Z,18.17
2018-02-19T21:45:35.316Z,22.00
2018-02-19T21:48:02.765Z,20.80
2018-02-19T21:50:30.239Z,19.98
2018-02-19T21:52:57.726Z,19.87
2018-02-19T21:55:25.371Z,20.88
2018-02-19T21:57:53.381Z,23.75
2018-02-19T22:00:21.635Z,21.75
2018-02-19T22:02:49.159Z,18.92
2018-02-19T22:05:16.721Z,24.30
2018-02-19T22:07:44.177Z,16.62
2018-02-19T22:10:11.656Z,22.30
2018-02-19T22:12:39.108Z,16.23
2018-02-19T22:15:06.582Z,22.65
2018-02-19T22:17:34.021Z,19.37
2018-02-19T22:20:01.498Z,21.30
2018-02-19T22:22:28.943Z,18.25
2018-02-19T22:24:56.428Z,19.95
2018-02-19T22:27:24.703Z,19.48
2018-02-19T22:29:52.936Z,20.73
2018-02-19T22:32:20.389Z,21.35
2018-02-19T22:34:47.847Z,20.88
2018-02-19T22:37:15.287Z,19.35
2018-02-19T22:39:42.762Z,18.77
2018-02-19T22:42:15.220Z,17.87
2018-02-19T22:44:42.975Z,19.30
2018-02-19T22:47:10.440Z,20.42
2018-02-19T22:49:42.144Z,22.27
2018-02-19T22:52:09.634Z,20.90
2018-02-19T22:54:37.027Z,21.30
2018-02-19T22:57:04.516Z,19.73
2018-02-19T22:59:31.966Z,24.48
2018-02-19T23:01:59.416Z,19.40
2018-02-19T23:04:27.656Z,20.08
2018-02-19T23:06:55.124Z,21.58
2018-02-19T23:09:22.629Z,19.85
2018-02-19T23:11:50.124Z,20.70
2018-02-19T23:14:17.621Z,21.17
2018-02-19T23:16:46.197Z,23.00
2018-02-19T23:19:13.656Z,20.83
2018-02-19T23:21:41.224Z,18.02
2018-02-19T23:24:12.268Z,21.48
2018-02-19T23:26:39.744Z,25.17
2018-02-19T23:29:07.180Z,21.70
2018-02-19T23:31:41.107Z,22.48
2018-02-19T23:34:09.053Z,25.40
2018-02-19T23:36:36.741Z,26.05
2018-02-19T23:39:04.345Z,21.90
2018-02-19T23:41:31.828Z,22.00
2018-02-19T23:43:59.554Z,22.75
2018-02-19T23:46:27.185Z,29.30
2018-02-19T23:48:55.765Z,23.12
2018-02-19T23:51:23.325Z,25.45
2018-02-19T23:53:50.968Z,26.45
2018-02-19T23:56:18.475Z,20.75
2018-02-19T23:58:46.143Z,20.98
